Terminal Aerodrome Forecast
Issued by NWS Topeka, KS

Home | Current Version | Previous Version | Graphics & Text | Print | Product List | Glossary On
Versions: 1 2 3 4 5 6 7 8 9 10 11 12 13 14 15 16 17 18 19 20 21
000
FTUS43 KTOP 142206 AAA
TAFTOP
TAF AMD
KTOP 142206Z 1422/1518 01004KT P6SM OVC040
     FM150100 05004KT 4SM -FZRA BR OVC015
     FM150400 05005KT 2SM -FZRA BR OVC008=

USA.gov is the U.S. government's official web portal to all federal, state and local government web resources and services.